<?xml version="1.0" encoding="UTF-8"?><gpx xmlns="http://www.topografix.com/GPX/1/1" version="1.1" creator="iOrient"><trk><name>Зимний Кубок. Этап 3</name><trkseg><trkpt lat="55.7946224" lon="49.1432640"><time>2025-03-22T10:56:18.073</time></trkpt><trkpt lat="55.7946361" lon="49.1433487"><time>2025-03-22T10:56:29.797</time></trkpt><trkpt lat="55.7946416" lon="49.1434329"><time>2025-03-22T10:56:33.797</time></trkpt><trkpt lat="55.7946099" lon="49.1434905"><time>2025-03-22T10:56:37.807</time></trkpt><trkpt lat="55.7945937" lon="49.1435725"><time>2025-03-22T10:56:41.807</time></trkpt><trkpt lat="55.7945739" lon="49.1436619"><time>2025-03-22T10:56:46.803</time></trkpt><trkpt lat="55.7945478" lon="49.1437388"><time>2025-03-22T10:56:50.807</time></trkpt><trkpt lat="55.7945417" lon="49.1438339"><time>2025-03-22T10:56:55.797</time></trkpt><trkpt lat="55.7945192" lon="49.1439241"><time>2025-03-22T10:57:00.803</time></trkpt><trkpt lat="55.7945211" lon="49.1440203"><time>2025-03-22T10:57:03.800</time></trkpt><trkpt lat="55.7945242" lon="49.1441277"><time>2025-03-22T10:57:07.797</time></trkpt><trkpt lat="55.7944997" lon="49.1441984"><time>2025-03-22T10:57:12.800</time></trkpt><trkpt lat="55.7944675" lon="49.1442761"><time>2025-03-22T10:57:17.807</time></trkpt><trkpt lat="55.7944619" lon="49.1443637"><time>2025-03-22T10:57:21.813</time></trkpt><trkpt lat="55.7944487" lon="49.1444631"><time>2025-03-22T10:57:26.807</time></trkpt><trkpt lat="55.7944058" lon="49.1445436"><time>2025-03-22T10:57:30.800</time></trkpt><trkpt lat="55.7943940" lon="49.1446269"><time>2025-03-22T10:57:35.797</time></trkpt><trkpt lat="55.7943743" lon="49.1447072"><time>2025-03-22T10:57:40.800</time></trkpt><trkpt lat="55.7943742" lon="49.1447887"><time>2025-03-22T10:57:45.800</time></trkpt><trkpt lat="55.7943748" lon="49.1448850"><time>2025-03-22T10:57:51.803</time></trkpt><trkpt lat="55.7943777" lon="49.1449711"><time>2025-03-22T10:57:55.810</time></trkpt><trkpt lat="55.7943668" lon="49.1450529"><time>2025-03-22T10:57:58.800</time></trkpt><trkpt lat="55.7943527" lon="49.1451361"><time>2025-03-22T10:58:03.807</time></trkpt><trkpt lat="55.7943409" lon="49.1451971"><time>2025-03-22T10:58:12.657</time></trkpt><trkpt lat="55.7943233" lon="49.1450694"><time>2025-03-22T10:59:05.807</time></trkpt><trkpt lat="55.7942816" lon="49.1450323"><time>2025-03-22T10:59:27.807</time></trkpt><trkpt lat="55.7942615" lon="49.1451171"><time>2025-03-22T11:00:07.813</time></trkpt><trkpt lat="55.7942887" lon="49.1452088"><time>2025-03-22T11:00:09.807</time></trkpt><trkpt lat="55.7943340" lon="49.1452311"><time>2025-03-22T11:00:14.807</time></trkpt><trkpt lat="55.7943154" lon="49.1451549"><time>2025-03-22T11:00:17.803</time></trkpt><trkpt lat="55.7943292" lon="49.1450727"><time>2025-03-22T11:00:22.807</time></trkpt><trkpt lat="55.7943671" lon="49.1449997"><time>2025-03-22T11:00:26.807</time></trkpt><trkpt lat="55.7944119" lon="49.1449492"><time>2025-03-22T11:00:30.803</time></trkpt><trkpt lat="55.7944544" lon="49.1449211"><time>2025-03-22T11:00:33.810</time></trkpt><trkpt lat="55.7945028" lon="49.1449232"><time>2025-03-22T11:00:37.800</time></trkpt><trkpt lat="55.7945445" lon="49.1449659"><time>2025-03-22T11:00:41.813</time></trkpt><trkpt lat="55.7945644" lon="49.1450409"><time>2025-03-22T11:00:46.813</time></trkpt><trkpt lat="55.7946071" lon="49.1450784"><time>2025-03-22T11:00:52.813</time></trkpt><trkpt lat="55.7946569" lon="49.1450403"><time>2025-03-22T11:00:59.810</time></trkpt><trkpt lat="55.7947056" lon="49.1450394"><time>2025-03-22T11:01:13.820</time></trkpt><trkpt lat="55.7947533" lon="49.1450087"><time>2025-03-22T11:01:18.807</time></trkpt><trkpt lat="55.7947879" lon="49.1449475"><time>2025-03-22T11:01:23.800</time></trkpt><trkpt lat="55.7948382" lon="49.1449322"><time>2025-03-22T11:01:31.810</time></trkpt><trkpt lat="55.7948802" lon="49.1448749"><time>2025-03-22T11:01:36.800</time></trkpt><trkpt lat="55.7949276" lon="49.1448723"><time>2025-03-22T11:01:42.810</time></trkpt><trkpt lat="55.7949647" lon="49.1449223"><time>2025-03-22T11:01:46.800</time></trkpt><trkpt lat="55.7950051" lon="49.1449900"><time>2025-03-22T11:01:51.803</time></trkpt><trkpt lat="55.7950349" lon="49.1450683"><time>2025-03-22T11:01:56.807</time></trkpt><trkpt lat="55.7950672" lon="49.1451479"><time>2025-03-22T11:02:01.807</time></trkpt><trkpt lat="55.7951037" lon="49.1452281"><time>2025-03-22T11:02:06.800</time></trkpt><trkpt lat="55.7951402" lon="49.1452842"><time>2025-03-22T11:02:10.803</time></trkpt><trkpt lat="55.7951819" lon="49.1453404"><time>2025-03-22T11:02:15.807</time></trkpt><trkpt lat="55.7952321" lon="49.1453540"><time>2025-03-22T11:02:22.807</time></trkpt><trkpt lat="55.7952156" lon="49.1454289"><time>2025-03-22T11:02:44.810</time></trkpt><trkpt lat="55.7951765" lon="49.1454943"><time>2025-03-22T11:02:50.810</time></trkpt><trkpt lat="55.7951469" lon="49.1455671"><time>2025-03-22T11:02:54.807</time></trkpt><trkpt lat="55.7951129" lon="49.1456400"><time>2025-03-22T11:02:59.867</time></trkpt><trkpt lat="55.7950792" lon="49.1457049"><time>2025-03-22T11:03:04.817</time></trkpt><trkpt lat="55.7950444" lon="49.1457722"><time>2025-03-22T11:03:08.800</time></trkpt><trkpt lat="55.7950166" lon="49.1458644"><time>2025-03-22T11:03:12.803</time></trkpt><trkpt lat="55.7949871" lon="49.1459514"><time>2025-03-22T11:03:16.803</time></trkpt><trkpt lat="55.7949585" lon="49.1460135"><time>2025-03-22T11:03:20.800</time></trkpt><trkpt lat="55.7949379" lon="49.1461021"><time>2025-03-22T11:03:25.803</time></trkpt><trkpt lat="55.7949168" lon="49.1461779"><time>2025-03-22T11:03:29.797</time></trkpt><trkpt lat="55.7948913" lon="49.1462599"><time>2025-03-22T11:03:34.800</time></trkpt><trkpt lat="55.7948604" lon="49.1463229"><time>2025-03-22T11:03:38.803</time></trkpt><trkpt lat="55.7948418" lon="49.1464054"><time>2025-03-22T11:03:43.803</time></trkpt><trkpt lat="55.7948289" lon="49.1464921"><time>2025-03-22T11:03:48.810</time></trkpt><trkpt lat="55.7948049" lon="49.1465863"><time>2025-03-22T11:03:52.810</time></trkpt><trkpt lat="55.7947881" lon="49.1466614"><time>2025-03-22T11:03:55.803</time></trkpt><trkpt lat="55.7947704" lon="49.1467512"><time>2025-03-22T11:04:00.810</time></trkpt><trkpt lat="55.7947477" lon="49.1468309"><time>2025-03-22T11:04:05.807</time></trkpt><trkpt lat="55.7947184" lon="49.1468992"><time>2025-03-22T11:04:09.807</time></trkpt><trkpt lat="55.7946858" lon="49.1469635"><time>2025-03-22T11:04:13.813</time></trkpt><trkpt lat="55.7946477" lon="49.1470190"><time>2025-03-22T11:04:17.797</time></trkpt><trkpt lat="55.7946156" lon="49.1470941"><time>2025-03-22T11:04:22.803</time></trkpt><trkpt lat="55.7945851" lon="49.1471654"><time>2025-03-22T11:04:27.807</time></trkpt><trkpt lat="55.7945775" lon="49.1472464"><time>2025-03-22T11:04:32.810</time></trkpt><trkpt lat="55.7945381" lon="49.1472901"><time>2025-03-22T11:04:44.807</time></trkpt><trkpt lat="55.7945105" lon="49.1473772"><time>2025-03-22T11:04:47.807</time></trkpt><trkpt lat="55.7944621" lon="49.1474250"><time>2025-03-22T11:04:50.810</time></trkpt><trkpt lat="55.7944156" lon="49.1474110"><time>2025-03-22T11:04:54.873</time></trkpt><trkpt lat="55.7943706" lon="49.1473695"><time>2025-03-22T11:04:58.800</time></trkpt><trkpt lat="55.7943238" lon="49.1473384"><time>2025-03-22T11:05:03.807</time></trkpt><trkpt lat="55.7942787" lon="49.1473135"><time>2025-03-22T11:05:07.807</time></trkpt><trkpt lat="55.7942314" lon="49.1473131"><time>2025-03-22T11:05:11.807</time></trkpt><trkpt lat="55.7941791" lon="49.1473221"><time>2025-03-22T11:05:17.807</time></trkpt><trkpt lat="55.7941271" lon="49.1472855"><time>2025-03-22T11:05:22.810</time></trkpt><trkpt lat="55.7940835" lon="49.1472633"><time>2025-03-22T11:05:26.810</time></trkpt><trkpt lat="55.7940401" lon="49.1472202"><time>2025-03-22T11:05:30.807</time></trkpt><trkpt lat="55.7939934" lon="49.1471742"><time>2025-03-22T11:05:34.810</time></trkpt><trkpt lat="55.7939349" lon="49.1471583"><time>2025-03-22T11:05:39.810</time></trkpt><trkpt lat="55.7938906" lon="49.1471418"><time>2025-03-22T11:05:42.800</time></trkpt><trkpt lat="55.7938386" lon="49.1471282"><time>2025-03-22T11:05:45.803</time></trkpt><trkpt lat="55.7937977" lon="49.1471657"><time>2025-03-22T11:05:55.813</time></trkpt><trkpt lat="55.7937813" lon="49.1472509"><time>2025-03-22T11:05:58.810</time></trkpt><trkpt lat="55.7937676" lon="49.1473471"><time>2025-03-22T11:06:01.810</time></trkpt><trkpt lat="55.7937655" lon="49.1474312"><time>2025-03-22T11:06:04.803</time></trkpt><trkpt lat="55.7937630" lon="49.1475123"><time>2025-03-22T11:06:07.810</time></trkpt><trkpt lat="55.7937428" lon="49.1475947"><time>2025-03-22T11:06:10.810</time></trkpt><trkpt lat="55.7937419" lon="49.1476888"><time>2025-03-22T11:06:15.813</time></trkpt><trkpt lat="55.7937263" lon="49.1477803"><time>2025-03-22T11:06:19.810</time></trkpt><trkpt lat="55.7937247" lon="49.1478703"><time>2025-03-22T11:06:28.810</time></trkpt><trkpt lat="55.7937027" lon="49.1479646"><time>2025-03-22T11:06:33.810</time></trkpt><trkpt lat="55.7936725" lon="49.1480485"><time>2025-03-22T11:06:37.810</time></trkpt><trkpt lat="55.7936436" lon="49.1481411"><time>2025-03-22T11:06:41.817</time></trkpt><trkpt lat="55.7936215" lon="49.1482297"><time>2025-03-22T11:06:44.810</time></trkpt><trkpt lat="55.7936049" lon="49.1483160"><time>2025-03-22T11:06:49.797</time></trkpt><trkpt lat="55.7935766" lon="49.1483961"><time>2025-03-22T11:06:53.813</time></trkpt><trkpt lat="55.7935425" lon="49.1484632"><time>2025-03-22T11:06:56.810</time></trkpt><trkpt lat="55.7935108" lon="49.1485395"><time>2025-03-22T11:07:00.877</time></trkpt><trkpt lat="55.7934876" lon="49.1486092"><time>2025-03-22T11:07:04.807</time></trkpt><trkpt lat="55.7934715" lon="49.1486897"><time>2025-03-22T11:07:11.890</time></trkpt><trkpt lat="55.7934523" lon="49.1487663"><time>2025-03-22T11:07:15.810</time></trkpt><trkpt lat="55.7934305" lon="49.1488522"><time>2025-03-22T11:07:19.810</time></trkpt><trkpt lat="55.7934096" lon="49.1489261"><time>2025-03-22T11:07:21.813</time></trkpt><trkpt lat="55.7933872" lon="49.1490006"><time>2025-03-22T11:07:25.810</time></trkpt><trkpt lat="55.7933679" lon="49.1490767"><time>2025-03-22T11:07:31.807</time></trkpt><trkpt lat="55.7933308" lon="49.1491489"><time>2025-03-22T11:07:44.800</time></trkpt><trkpt lat="55.7932969" lon="49.1492187"><time>2025-03-22T11:07:49.807</time></trkpt><trkpt lat="55.7932854" lon="49.1493140"><time>2025-03-22T11:07:53.803</time></trkpt><trkpt lat="55.7932737" lon="49.1493934"><time>2025-03-22T11:08:00.813</time></trkpt><trkpt lat="55.7932474" lon="49.1494864"><time>2025-03-22T11:08:09.810</time></trkpt><trkpt lat="55.7932248" lon="49.1495830"><time>2025-03-22T11:08:12.810</time></trkpt><trkpt lat="55.7932061" lon="49.1496860"><time>2025-03-22T11:08:15.807</time></trkpt><trkpt lat="55.7931875" lon="49.1497595"><time>2025-03-22T11:08:17.807</time></trkpt><trkpt lat="55.7931692" lon="49.1498458"><time>2025-03-22T11:08:20.810</time></trkpt><trkpt lat="55.7931488" lon="49.1499214"><time>2025-03-22T11:08:23.813</time></trkpt><trkpt lat="55.7931310" lon="49.1500008"><time>2025-03-22T11:08:26.810</time></trkpt><trkpt lat="55.7931207" lon="49.1500942"><time>2025-03-22T11:08:29.807</time></trkpt><trkpt lat="55.7931098" lon="49.1501780"><time>2025-03-22T11:08:34.810</time></trkpt><trkpt lat="55.7930976" lon="49.1502681"><time>2025-03-22T11:08:38.810</time></trkpt><trkpt lat="55.7930830" lon="49.1503448"><time>2025-03-22T11:08:42.810</time></trkpt><trkpt lat="55.7930827" lon="49.1504251"><time>2025-03-22T11:08:48.807</time></trkpt><trkpt lat="55.7930793" lon="49.1505121"><time>2025-03-22T11:08:54.810</time></trkpt><trkpt lat="55.7930718" lon="49.1506192"><time>2025-03-22T11:08:57.810</time></trkpt><trkpt lat="55.7930643" lon="49.1507265"><time>2025-03-22T11:09:00.807</time></trkpt><trkpt lat="55.7930730" lon="49.1508127"><time>2025-03-22T11:09:03.810</time></trkpt><trkpt lat="55.7930637" lon="49.1508921"><time>2025-03-22T11:09:06.810</time></trkpt><trkpt lat="55.7930441" lon="49.1509823"><time>2025-03-22T11:09:10.810</time></trkpt><trkpt lat="55.7930388" lon="49.1510769"><time>2025-03-22T11:09:15.810</time></trkpt><trkpt lat="55.7930473" lon="49.1511631"><time>2025-03-22T11:09:19.810</time></trkpt><trkpt lat="55.7930425" lon="49.1512668"><time>2025-03-22T11:09:22.810</time></trkpt><trkpt lat="55.7930296" lon="49.1513485"><time>2025-03-22T11:09:25.810</time></trkpt><trkpt lat="55.7930092" lon="49.1514281"><time>2025-03-22T11:09:29.810</time></trkpt><trkpt lat="55.7929938" lon="49.1515324"><time>2025-03-22T11:09:38.807</time></trkpt><trkpt lat="55.7929897" lon="49.1516159"><time>2025-03-22T11:09:47.807</time></trkpt><trkpt lat="55.7929900" lon="49.1517198"><time>2025-03-22T11:09:54.813</time></trkpt><trkpt lat="55.7929891" lon="49.1518089"><time>2025-03-22T11:09:58.810</time></trkpt><trkpt lat="55.7929723" lon="49.1519087"><time>2025-03-22T11:10:02.813</time></trkpt><trkpt lat="55.7929560" lon="49.1519968"><time>2025-03-22T11:10:06.800</time></trkpt><trkpt lat="55.7929530" lon="49.1520797"><time>2025-03-22T11:10:10.810</time></trkpt><trkpt lat="55.7929512" lon="49.1521662"><time>2025-03-22T11:10:15.813</time></trkpt><trkpt lat="55.7929387" lon="49.1522703"><time>2025-03-22T11:10:19.810</time></trkpt><trkpt lat="55.7929302" lon="49.1523507"><time>2025-03-22T11:10:22.810</time></trkpt><trkpt lat="55.7929235" lon="49.1524507"><time>2025-03-22T11:10:26.867</time></trkpt><trkpt lat="55.7929196" lon="49.1525446"><time>2025-03-22T11:10:29.807</time></trkpt><trkpt lat="55.7929100" lon="49.1526355"><time>2025-03-22T11:10:33.810</time></trkpt><trkpt lat="55.7928984" lon="49.1527303"><time>2025-03-22T11:10:37.810</time></trkpt><trkpt lat="55.7929026" lon="49.1528134"><time>2025-03-22T11:10:40.810</time></trkpt><trkpt lat="55.7928917" lon="49.1529171"><time>2025-03-22T11:10:44.813</time></trkpt><trkpt lat="55.7928849" lon="49.1530197"><time>2025-03-22T11:10:48.797</time></trkpt><trkpt lat="55.7928944" lon="49.1531367"><time>2025-03-22T11:10:52.807</time></trkpt><trkpt lat="55.7929021" lon="49.1532234"><time>2025-03-22T11:10:54.807</time></trkpt><trkpt lat="55.7929212" lon="49.1533271"><time>2025-03-22T11:10:57.810</time></trkpt><trkpt lat="55.7929017" lon="49.1534088"><time>2025-03-22T11:11:01.813</time></trkpt><trkpt lat="55.7928886" lon="49.1534960"><time>2025-03-22T11:11:08.810</time></trkpt><trkpt lat="55.7928821" lon="49.1535757"><time>2025-03-22T11:11:12.810</time></trkpt><trkpt lat="55.7928837" lon="49.1536603"><time>2025-03-22T11:11:17.810</time></trkpt><trkpt lat="55.7928781" lon="49.1537521"><time>2025-03-22T11:11:22.810</time></trkpt><trkpt lat="55.7928788" lon="49.1538543"><time>2025-03-22T11:11:26.807</time></trkpt><trkpt lat="55.7928862" lon="49.1539379"><time>2025-03-22T11:11:30.810</time></trkpt><trkpt lat="55.7928838" lon="49.1540375"><time>2025-03-22T11:11:35.807</time></trkpt><trkpt lat="55.7929041" lon="49.1541127"><time>2025-03-22T11:11:39.810</time></trkpt><trkpt lat="55.7929387" lon="49.1541835"><time>2025-03-22T11:11:43.807</time></trkpt><trkpt lat="55.7929267" lon="49.1542646"><time>2025-03-22T11:11:50.810</time></trkpt><trkpt lat="55.7929346" lon="49.1543702"><time>2025-03-22T11:11:57.810</time></trkpt><trkpt lat="55.7929613" lon="49.1544610"><time>2025-03-22T11:12:00.807</time></trkpt><trkpt lat="55.7929988" lon="49.1545589"><time>2025-03-22T11:12:04.807</time></trkpt><trkpt lat="55.7930373" lon="49.1546085"><time>2025-03-22T11:12:07.810</time></trkpt><trkpt lat="55.7930796" lon="49.1546598"><time>2025-03-22T11:12:10.810</time></trkpt><trkpt lat="55.7931302" lon="49.1547105"><time>2025-03-22T11:12:13.810</time></trkpt><trkpt lat="55.7931623" lon="49.1547826"><time>2025-03-22T11:12:18.810</time></trkpt><trkpt lat="55.7932067" lon="49.1548192"><time>2025-03-22T11:12:26.813</time></trkpt><trkpt lat="55.7932576" lon="49.1548439"><time>2025-03-22T11:12:30.810</time></trkpt><trkpt lat="55.7932983" lon="49.1548967"><time>2025-03-22T11:12:34.810</time></trkpt><trkpt lat="55.7933275" lon="49.1549579"><time>2025-03-22T11:12:39.800</time></trkpt><trkpt lat="55.7933195" lon="49.1550010"><time>2025-03-22T11:12:50.270</time></trkpt><trkpt lat="55.7933341" lon="49.1548752"><time>2025-03-22T11:13:48.813</time></trkpt><trkpt lat="55.7933423" lon="49.1547824"><time>2025-03-22T11:13:53.813</time></trkpt><trkpt lat="55.7933534" lon="49.1546861"><time>2025-03-22T11:13:57.807</time></trkpt><trkpt lat="55.7933668" lon="49.1546055"><time>2025-03-22T11:13:59.810</time></trkpt><trkpt lat="55.7933890" lon="49.1545212"><time>2025-03-22T11:14:03.807</time></trkpt><trkpt lat="55.7934045" lon="49.1544460"><time>2025-03-22T11:14:07.807</time></trkpt><trkpt lat="55.7933902" lon="49.1543670"><time>2025-03-22T11:14:16.800</time></trkpt><trkpt lat="55.7933368" lon="49.1543459"><time>2025-03-22T11:14:21.807</time></trkpt><trkpt lat="55.7932925" lon="49.1543124"><time>2025-03-22T11:14:25.810</time></trkpt><trkpt lat="55.7932542" lon="49.1542547"><time>2025-03-22T11:14:30.810</time></trkpt><trkpt lat="55.7932333" lon="49.1541753"><time>2025-03-22T11:14:37.807</time></trkpt><trkpt lat="55.7931857" lon="49.1541200"><time>2025-03-22T11:14:42.813</time></trkpt><trkpt lat="55.7931381" lon="49.1541041"><time>2025-03-22T11:14:45.810</time></trkpt><trkpt lat="55.7931002" lon="49.1540547"><time>2025-03-22T11:14:50.807</time></trkpt><trkpt lat="55.7930715" lon="49.1539811"><time>2025-03-22T11:14:56.810</time></trkpt><trkpt lat="55.7930465" lon="49.1539114"><time>2025-03-22T11:15:04.810</time></trkpt><trkpt lat="55.7930014" lon="49.1538781"><time>2025-03-22T11:15:10.807</time></trkpt><trkpt lat="55.7929669" lon="49.1538152"><time>2025-03-22T11:15:15.797</time></trkpt><trkpt lat="55.7929544" lon="49.1537273"><time>2025-03-22T11:15:18.810</time></trkpt><trkpt lat="55.7929531" lon="49.1536432"><time>2025-03-22T11:15:22.810</time></trkpt><trkpt lat="55.7929486" lon="49.1535582"><time>2025-03-22T11:15:26.797</time></trkpt><trkpt lat="55.7929442" lon="49.1534602"><time>2025-03-22T11:15:31.810</time></trkpt><trkpt lat="55.7929359" lon="49.1533816"><time>2025-03-22T11:15:37.807</time></trkpt><trkpt lat="55.7929411" lon="49.1532863"><time>2025-03-22T11:15:41.807</time></trkpt><trkpt lat="55.7929360" lon="49.1531817"><time>2025-03-22T11:15:47.810</time></trkpt><trkpt lat="55.7929370" lon="49.1530956"><time>2025-03-22T11:15:51.807</time></trkpt><trkpt lat="55.7929557" lon="49.1530089"><time>2025-03-22T11:15:55.803</time></trkpt><trkpt lat="55.7929922" lon="49.1529350"><time>2025-03-22T11:16:01.807</time></trkpt><trkpt lat="55.7930166" lon="49.1528506"><time>2025-03-22T11:16:04.810</time></trkpt><trkpt lat="55.7930445" lon="49.1527742"><time>2025-03-22T11:16:07.797</time></trkpt><trkpt lat="55.7930751" lon="49.1526951"><time>2025-03-22T11:16:10.810</time></trkpt><trkpt lat="55.7931141" lon="49.1526260"><time>2025-03-22T11:16:18.810</time></trkpt><trkpt lat="55.7931521" lon="49.1525579"><time>2025-03-22T11:16:21.810</time></trkpt><trkpt lat="55.7931784" lon="49.1524862"><time>2025-03-22T11:16:27.817</time></trkpt><trkpt lat="55.7932133" lon="49.1524156"><time>2025-03-22T11:16:30.817</time></trkpt><trkpt lat="55.7932451" lon="49.1523549"><time>2025-03-22T11:16:33.813</time></trkpt><trkpt lat="55.7932751" lon="49.1522832"><time>2025-03-22T11:16:36.810</time></trkpt><trkpt lat="55.7933059" lon="49.1522046"><time>2025-03-22T11:16:40.797</time></trkpt><trkpt lat="55.7933430" lon="49.1521378"><time>2025-03-22T11:16:44.807</time></trkpt><trkpt lat="55.7933901" lon="49.1521132"><time>2025-03-22T11:16:56.807</time></trkpt><trkpt lat="55.7934380" lon="49.1520861"><time>2025-03-22T11:17:01.810</time></trkpt><trkpt lat="55.7934873" lon="49.1520788"><time>2025-03-22T11:17:06.807</time></trkpt><trkpt lat="55.7935353" lon="49.1520709"><time>2025-03-22T11:17:09.810</time></trkpt><trkpt lat="55.7935882" lon="49.1520658"><time>2025-03-22T11:17:12.807</time></trkpt><trkpt lat="55.7936435" lon="49.1520668"><time>2025-03-22T11:17:14.807</time></trkpt><trkpt lat="55.7936911" lon="49.1520698"><time>2025-03-22T11:17:16.807</time></trkpt><trkpt lat="55.7937401" lon="49.1520631"><time>2025-03-22T11:17:19.810</time></trkpt><trkpt lat="55.7937944" lon="49.1520651"><time>2025-03-22T11:17:25.807</time></trkpt><trkpt lat="55.7938434" lon="49.1520874"><time>2025-03-22T11:17:29.797</time></trkpt><trkpt lat="55.7938965" lon="49.1521056"><time>2025-03-22T11:17:33.810</time></trkpt><trkpt lat="55.7939443" lon="49.1521216"><time>2025-03-22T11:17:38.810</time></trkpt><trkpt lat="55.7939929" lon="49.1521456"><time>2025-03-22T11:17:44.800</time></trkpt><trkpt lat="55.7940378" lon="49.1521370"><time>2025-03-22T11:17:49.810</time></trkpt><trkpt lat="55.7940819" lon="49.1521559"><time>2025-03-22T11:17:56.807</time></trkpt><trkpt lat="55.7941308" lon="49.1521483"><time>2025-03-22T11:18:01.807</time></trkpt><trkpt lat="55.7941825" lon="49.1521708"><time>2025-03-22T11:18:05.807</time></trkpt><trkpt lat="55.7942287" lon="49.1521711"><time>2025-03-22T11:18:09.807</time></trkpt><trkpt lat="55.7942830" lon="49.1521659"><time>2025-03-22T11:18:13.807</time></trkpt><trkpt lat="55.7943298" lon="49.1521715"><time>2025-03-22T11:18:16.810</time></trkpt><trkpt lat="55.7943742" lon="49.1522244"><time>2025-03-22T11:18:20.810</time></trkpt><trkpt lat="55.7944221" lon="49.1522099"><time>2025-03-22T11:18:23.807</time></trkpt><trkpt lat="55.7944715" lon="49.1521954"><time>2025-03-22T11:18:27.793</time></trkpt><trkpt lat="55.7945139" lon="49.1522230"><time>2025-03-22T11:18:31.807</time></trkpt><trkpt lat="55.7945632" lon="49.1522269"><time>2025-03-22T11:18:36.807</time></trkpt><trkpt lat="55.7946101" lon="49.1522585"><time>2025-03-22T11:18:42.803</time></trkpt><trkpt lat="55.7946563" lon="49.1522712"><time>2025-03-22T11:18:46.807</time></trkpt><trkpt lat="55.7947035" lon="49.1522940"><time>2025-03-22T11:18:49.803</time></trkpt><trkpt lat="55.7947536" lon="49.1522987"><time>2025-03-22T11:18:55.807</time></trkpt><trkpt lat="55.7947994" lon="49.1523402"><time>2025-03-22T11:19:01.803</time></trkpt><trkpt lat="55.7948473" lon="49.1523610"><time>2025-03-22T11:19:05.807</time></trkpt><trkpt lat="55.7948948" lon="49.1523673"><time>2025-03-22T11:19:09.807</time></trkpt><trkpt lat="55.7949494" lon="49.1523765"><time>2025-03-22T11:19:14.807</time></trkpt><trkpt lat="55.7949999" lon="49.1523712"><time>2025-03-22T11:19:19.807</time></trkpt><trkpt lat="55.7950447" lon="49.1523628"><time>2025-03-22T11:19:22.807</time></trkpt><trkpt lat="55.7950886" lon="49.1523460"><time>2025-03-22T11:19:26.810</time></trkpt><trkpt lat="55.7951454" lon="49.1523531"><time>2025-03-22T11:19:29.803</time></trkpt><trkpt lat="55.7951929" lon="49.1523656"><time>2025-03-22T11:19:32.807</time></trkpt><trkpt lat="55.7952494" lon="49.1523743"><time>2025-03-22T11:19:36.810</time></trkpt><trkpt lat="55.7952964" lon="49.1523500"><time>2025-03-22T11:19:42.810</time></trkpt><trkpt lat="55.7953466" lon="49.1523706"><time>2025-03-22T11:19:48.797</time></trkpt><trkpt lat="55.7953906" lon="49.1524050"><time>2025-03-22T11:19:52.797</time></trkpt><trkpt lat="55.7954383" lon="49.1524553"><time>2025-03-22T11:19:56.800</time></trkpt><trkpt lat="55.7954842" lon="49.1524597"><time>2025-03-22T11:20:01.797</time></trkpt><trkpt lat="55.7955390" lon="49.1524784"><time>2025-03-22T11:20:07.797</time></trkpt><trkpt lat="55.7955866" lon="49.1524294"><time>2025-03-22T11:20:12.800</time></trkpt><trkpt lat="55.7956401" lon="49.1524486"><time>2025-03-22T11:20:17.800</time></trkpt><trkpt lat="55.7956788" lon="49.1524072"><time>2025-03-22T11:20:23.797</time></trkpt><trkpt lat="55.7957311" lon="49.1523823"><time>2025-03-22T11:20:28.800</time></trkpt><trkpt lat="55.7957778" lon="49.1523893"><time>2025-03-22T11:20:32.797</time></trkpt><trkpt lat="55.7958225" lon="49.1523686"><time>2025-03-22T11:20:36.803</time></trkpt><trkpt lat="55.7958705" lon="49.1523716"><time>2025-03-22T11:20:41.803</time></trkpt><trkpt lat="55.7959162" lon="49.1524013"><time>2025-03-22T11:20:45.797</time></trkpt><trkpt lat="55.7959629" lon="49.1524161"><time>2025-03-22T11:20:51.800</time></trkpt><trkpt lat="55.7960009" lon="49.1523719"><time>2025-03-22T11:20:57.803</time></trkpt><trkpt lat="55.7960499" lon="49.1523232"><time>2025-03-22T11:21:01.803</time></trkpt><trkpt lat="55.7960880" lon="49.1522601"><time>2025-03-22T11:21:04.807</time></trkpt><trkpt lat="55.7961320" lon="49.1522175"><time>2025-03-22T11:21:07.807</time></trkpt><trkpt lat="55.7961782" lon="49.1521962"><time>2025-03-22T11:21:10.797</time></trkpt><trkpt lat="55.7962327" lon="49.1521894"><time>2025-03-22T11:21:13.797</time></trkpt><trkpt lat="55.7962862" lon="49.1521719"><time>2025-03-22T11:21:17.807</time></trkpt><trkpt lat="55.7963365" lon="49.1521575"><time>2025-03-22T11:21:21.803</time></trkpt><trkpt lat="55.7963831" lon="49.1521481"><time>2025-03-22T11:21:25.803</time></trkpt><trkpt lat="55.7964303" lon="49.1521274"><time>2025-03-22T11:21:31.803</time></trkpt><trkpt lat="55.7964681" lon="49.1520823"><time>2025-03-22T11:21:36.803</time></trkpt><trkpt lat="55.7965043" lon="49.1520351"><time>2025-03-22T11:21:39.800</time></trkpt><trkpt lat="55.7965498" lon="49.1520342"><time>2025-03-22T11:21:45.800</time></trkpt><trkpt lat="55.7966004" lon="49.1520211"><time>2025-03-22T11:21:48.803</time></trkpt><trkpt lat="55.7966508" lon="49.1520194"><time>2025-03-22T11:22:01.793</time></trkpt><trkpt lat="55.7967026" lon="49.1520035"><time>2025-03-22T11:22:06.803</time></trkpt><trkpt lat="55.7967438" lon="49.1520356"><time>2025-03-22T11:22:10.803</time></trkpt><trkpt lat="55.7967892" lon="49.1520619"><time>2025-03-22T11:22:14.803</time></trkpt><trkpt lat="55.7968461" lon="49.1520494"><time>2025-03-22T11:22:18.803</time></trkpt><trkpt lat="55.7968920" lon="49.1520256"><time>2025-03-22T11:22:22.803</time></trkpt><trkpt lat="55.7969351" lon="49.1520018"><time>2025-03-22T11:22:27.807</time></trkpt><trkpt lat="55.7969859" lon="49.1519833"><time>2025-03-22T11:22:32.800</time></trkpt><trkpt lat="55.7970276" lon="49.1519526"><time>2025-03-22T11:22:37.803</time></trkpt><trkpt lat="55.7970780" lon="49.1519559"><time>2025-03-22T11:22:41.803</time></trkpt><trkpt lat="55.7971151" lon="49.1519029"><time>2025-03-22T11:22:46.800</time></trkpt><trkpt lat="55.7971531" lon="49.1518428"><time>2025-03-22T11:22:52.803</time></trkpt><trkpt lat="55.7971979" lon="49.1517954"><time>2025-03-22T11:22:57.807</time></trkpt><trkpt lat="55.7972501" lon="49.1517714"><time>2025-03-22T11:23:01.803</time></trkpt><trkpt lat="55.7972952" lon="49.1517584"><time>2025-03-22T11:23:05.803</time></trkpt><trkpt lat="55.7973440" lon="49.1517460"><time>2025-03-22T11:23:11.807</time></trkpt><trkpt lat="55.7973959" lon="49.1517042"><time>2025-03-22T11:23:16.803</time></trkpt><trkpt lat="55.7974439" lon="49.1517087"><time>2025-03-22T11:23:24.800</time></trkpt><trkpt lat="55.7974965" lon="49.1517004"><time>2025-03-22T11:23:29.807</time></trkpt><trkpt lat="55.7975403" lon="49.1516702"><time>2025-03-22T11:23:42.807</time></trkpt><trkpt lat="55.7975728" lon="49.1515948"><time>2025-03-22T11:23:46.810</time></trkpt><trkpt lat="55.7976227" lon="49.1515375"><time>2025-03-22T11:23:50.807</time></trkpt><trkpt lat="55.7976660" lon="49.1515011"><time>2025-03-22T11:23:53.807</time></trkpt><trkpt lat="55.7977155" lon="49.1514540"><time>2025-03-22T11:23:57.807</time></trkpt><trkpt lat="55.7977583" lon="49.1513880"><time>2025-03-22T11:24:00.807</time></trkpt><trkpt lat="55.7978116" lon="49.1513875"><time>2025-03-22T11:24:04.810</time></trkpt><trkpt lat="55.7978651" lon="49.1513497"><time>2025-03-22T11:24:09.807</time></trkpt><trkpt lat="55.7979043" lon="49.1513047"><time>2025-03-22T11:24:12.810</time></trkpt><trkpt lat="55.7979559" lon="49.1512932"><time>2025-03-22T11:24:16.810</time></trkpt><trkpt lat="55.7980056" lon="49.1512574"><time>2025-03-22T11:24:21.807</time></trkpt><trkpt lat="55.7980432" lon="49.1511835"><time>2025-03-22T11:24:26.807</time></trkpt><trkpt lat="55.7980800" lon="49.1511318"><time>2025-03-22T11:24:31.807</time></trkpt><trkpt lat="55.7981178" lon="49.1510735"><time>2025-03-22T11:24:37.807</time></trkpt><trkpt lat="55.7981630" lon="49.1510789"><time>2025-03-22T11:24:42.807</time></trkpt><trkpt lat="55.7982157" lon="49.1510815"><time>2025-03-22T11:24:50.807</time></trkpt><trkpt lat="55.7982591" lon="49.1510506"><time>2025-03-22T11:24:54.807</time></trkpt><trkpt lat="55.7982997" lon="49.1509904"><time>2025-03-22T11:25:01.807</time></trkpt><trkpt lat="55.7983563" lon="49.1509766"><time>2025-03-22T11:25:07.810</time></trkpt><trkpt lat="55.7984082" lon="49.1510102"><time>2025-03-22T11:25:11.807</time></trkpt><trkpt lat="55.7984575" lon="49.1510448"><time>2025-03-22T11:25:16.810</time></trkpt><trkpt lat="55.7985022" lon="49.1510129"><time>2025-03-22T11:25:20.797</time></trkpt><trkpt lat="55.7985502" lon="49.1509711"><time>2025-03-22T11:25:29.810</time></trkpt><trkpt lat="55.7985961" lon="49.1509365"><time>2025-03-22T11:25:41.803</time></trkpt><trkpt lat="55.7986336" lon="49.1508785"><time>2025-03-22T11:25:45.810</time></trkpt><trkpt lat="55.7986830" lon="49.1508669"><time>2025-03-22T11:25:49.810</time></trkpt><trkpt lat="55.7986946" lon="49.1509555"><time>2025-03-22T11:25:55.807</time></trkpt><trkpt lat="55.7987092" lon="49.1510523"><time>2025-03-22T11:26:00.807</time></trkpt><trkpt lat="55.7987263" lon="49.1511340"><time>2025-03-22T11:26:04.810</time></trkpt><trkpt lat="55.7987486" lon="49.1512125"><time>2025-03-22T11:26:09.810</time></trkpt><trkpt lat="55.7987733" lon="49.1512833"><time>2025-03-22T11:26:13.793</time></trkpt><trkpt lat="55.7987683" lon="49.1513641"><time>2025-03-22T11:26:18.803</time></trkpt><trkpt lat="55.7987792" lon="49.1514565"><time>2025-03-22T11:26:23.810</time></trkpt><trkpt lat="55.7987982" lon="49.1515378"><time>2025-03-22T11:26:28.810</time></trkpt><trkpt lat="55.7988126" lon="49.1516194"><time>2025-03-22T11:26:33.807</time></trkpt><trkpt lat="55.7988093" lon="49.1517128"><time>2025-03-22T11:26:39.807</time></trkpt><trkpt lat="55.7988138" lon="49.1517969"><time>2025-03-22T11:26:47.807</time></trkpt><trkpt lat="55.7988322" lon="49.1518716"><time>2025-03-22T11:26:54.807</time></trkpt><trkpt lat="55.7988502" lon="49.1519450"><time>2025-03-22T11:27:02.810</time></trkpt><trkpt lat="55.7988869" lon="49.1520098"><time>2025-03-22T11:27:11.810</time></trkpt><trkpt lat="55.7989286" lon="49.1520483"><time>2025-03-22T11:27:14.807</time></trkpt><trkpt lat="55.7989852" lon="49.1520779"><time>2025-03-22T11:27:18.810</time></trkpt><trkpt lat="55.7990331" lon="49.1520801"><time>2025-03-22T11:27:21.807</time></trkpt><trkpt lat="55.7990827" lon="49.1520598"><time>2025-03-22T11:27:26.807</time></trkpt><trkpt lat="55.7991319" lon="49.1520904"><time>2025-03-22T11:27:31.807</time></trkpt><trkpt lat="55.7991698" lon="49.1521371"><time>2025-03-22T11:27:36.810</time></trkpt><trkpt lat="55.7991579" lon="49.1522151"><time>2025-03-22T11:27:43.797</time></trkpt><trkpt lat="55.7991701" lon="49.1522878"><time>2025-03-22T11:27:50.003</time></trkpt><trkpt lat="55.7991727" lon="49.1522959"><time>2025-03-22T11:27:50.797</time></trkpt><trkpt lat="55.7991468" lon="49.1522154"><time>2025-03-22T11:28:00.803</time></trkpt><trkpt lat="55.7990967" lon="49.1522072"><time>2025-03-22T11:28:14.810</time></trkpt><trkpt lat="55.7990447" lon="49.1522137"><time>2025-03-22T11:28:18.810</time></trkpt><trkpt lat="55.7989913" lon="49.1522406"><time>2025-03-22T11:28:23.793</time></trkpt><trkpt lat="55.7989491" lon="49.1522980"><time>2025-03-22T11:28:27.813</time></trkpt><trkpt lat="55.7989017" lon="49.1523222"><time>2025-03-22T11:28:33.810</time></trkpt><trkpt lat="55.7988553" lon="49.1523311"><time>2025-03-22T11:28:40.803</time></trkpt><trkpt lat="55.7988070" lon="49.1523555"><time>2025-03-22T11:28:45.810</time></trkpt><trkpt lat="55.7987641" lon="49.1523820"><time>2025-03-22T11:28:50.807</time></trkpt><trkpt lat="55.7987171" lon="49.1524227"><time>2025-03-22T11:28:54.807</time></trkpt><trkpt lat="55.7986650" lon="49.1524514"><time>2025-03-22T11:29:00.807</time></trkpt><trkpt lat="55.7986258" lon="49.1524917"><time>2025-03-22T11:29:04.807</time></trkpt><trkpt lat="55.7985746" lon="49.1524642"><time>2025-03-22T11:29:09.810</time></trkpt><trkpt lat="55.7985173" lon="49.1524687"><time>2025-03-22T11:29:14.803</time></trkpt><trkpt lat="55.7984702" lon="49.1524853"><time>2025-03-22T11:29:25.807</time></trkpt><trkpt lat="55.7984543" lon="49.1525621"><time>2025-03-22T11:29:40.807</time></trkpt><trkpt lat="55.7984825" lon="49.1526246"><time>2025-03-22T11:30:25.810</time></trkpt><trkpt lat="55.7984587" lon="49.1525534"><time>2025-03-22T11:30:43.807</time></trkpt><trkpt lat="55.7984315" lon="49.1524875"><time>2025-03-22T11:32:12.807</time></trkpt><trkpt lat="55.7983992" lon="49.1524270"><time>2025-03-22T11:32:18.810</time></trkpt><trkpt lat="55.7983885" lon="49.1523471"><time>2025-03-22T11:32:45.807</time></trkpt><trkpt lat="55.7983741" lon="49.1522678"><time>2025-03-22T11:32:50.813</time></trkpt><trkpt lat="55.7983541" lon="49.1521836"><time>2025-03-22T11:32:55.807</time></trkpt><trkpt lat="55.7983313" lon="49.1521009"><time>2025-03-22T11:32:59.807</time></trkpt><trkpt lat="55.7983076" lon="49.1520243"><time>2025-03-22T11:33:02.810</time></trkpt><trkpt lat="55.7982897" lon="49.1519459"><time>2025-03-22T11:33:05.807</time></trkpt><trkpt lat="55.7982682" lon="49.1518680"><time>2025-03-22T11:33:08.807</time></trkpt><trkpt lat="55.7982562" lon="49.1517871"><time>2025-03-22T11:33:11.807</time></trkpt><trkpt lat="55.7982333" lon="49.1517119"><time>2025-03-22T11:33:15.807</time></trkpt><trkpt lat="55.7981970" lon="49.1516506"><time>2025-03-22T11:33:19.807</time></trkpt><trkpt lat="55.7981654" lon="49.1515743"><time>2025-03-22T11:33:23.807</time></trkpt><trkpt lat="55.7981408" lon="49.1514818"><time>2025-03-22T11:33:27.810</time></trkpt><trkpt lat="55.7981232" lon="49.1514052"><time>2025-03-22T11:33:31.810</time></trkpt><trkpt lat="55.7981159" lon="49.1513141"><time>2025-03-22T11:33:35.807</time></trkpt><trkpt lat="55.7981023" lon="49.1512216"><time>2025-03-22T11:33:40.807</time></trkpt><trkpt lat="55.7980896" lon="49.1511259"><time>2025-03-22T11:33:46.807</time></trkpt><trkpt lat="55.7980919" lon="49.1510433"><time>2025-03-22T11:33:53.807</time></trkpt><trkpt lat="55.7980849" lon="49.1509527"><time>2025-03-22T11:34:00.807</time></trkpt><trkpt lat="55.7980545" lon="49.1508906"><time>2025-03-22T11:34:05.807</time></trkpt><trkpt lat="55.7980309" lon="49.1508172"><time>2025-03-22T11:34:10.807</time></trkpt><trkpt lat="55.7980213" lon="49.1507377"><time>2025-03-22T11:34:25.807</time></trkpt><trkpt lat="55.7979934" lon="49.1506717"><time>2025-03-22T11:34:29.807</time></trkpt><trkpt lat="55.7979600" lon="49.1506107"><time>2025-03-22T11:34:36.807</time></trkpt><trkpt lat="55.7979673" lon="49.1505145"><time>2025-03-22T11:34:44.810</time></trkpt><trkpt lat="55.7979410" lon="49.1504396"><time>2025-03-22T11:34:50.807</time></trkpt><trkpt lat="55.7978989" lon="49.1503854"><time>2025-03-22T11:34:54.807</time></trkpt><trkpt lat="55.7978539" lon="49.1503337"><time>2025-03-22T11:34:59.807</time></trkpt><trkpt lat="55.7978126" lon="49.1502785"><time>2025-03-22T11:35:05.807</time></trkpt><trkpt lat="55.7977841" lon="49.1502050"><time>2025-03-22T11:35:11.810</time></trkpt><trkpt lat="55.7977433" lon="49.1501399"><time>2025-03-22T11:35:16.810</time></trkpt><trkpt lat="55.7977055" lon="49.1500814"><time>2025-03-22T11:35:20.807</time></trkpt><trkpt lat="55.7976727" lon="49.1500191"><time>2025-03-22T11:35:24.807</time></trkpt><trkpt lat="55.7976351" lon="49.1499630"><time>2025-03-22T11:35:28.807</time></trkpt><trkpt lat="55.7975935" lon="49.1498980"><time>2025-03-22T11:35:33.803</time></trkpt><trkpt lat="55.7975525" lon="49.1498460"><time>2025-03-22T11:35:38.807</time></trkpt><trkpt lat="55.7975201" lon="49.1497743"><time>2025-03-22T11:35:44.807</time></trkpt><trkpt lat="55.7974809" lon="49.1497257"><time>2025-03-22T11:35:49.810</time></trkpt><trkpt lat="55.7974434" lon="49.1496715"><time>2025-03-22T11:35:54.810</time></trkpt><trkpt lat="55.7974116" lon="49.1496056"><time>2025-03-22T11:35:59.810</time></trkpt><trkpt lat="55.7973882" lon="49.1495361"><time>2025-03-22T11:36:04.807</time></trkpt><trkpt lat="55.7973987" lon="49.1494572"><time>2025-03-22T11:36:12.807</time></trkpt><trkpt lat="55.7974273" lon="49.1493955"><time>2025-03-22T11:36:34.807</time></trkpt><trkpt lat="55.7973780" lon="49.1494356"><time>2025-03-22T11:37:00.807</time></trkpt><trkpt lat="55.7973252" lon="49.1494320"><time>2025-03-22T11:37:04.807</time></trkpt><trkpt lat="55.7972774" lon="49.1494163"><time>2025-03-22T11:37:08.797</time></trkpt><trkpt lat="55.7972283" lon="49.1494024"><time>2025-03-22T11:37:16.810</time></trkpt><trkpt lat="55.7971794" lon="49.1493849"><time>2025-03-22T11:37:20.807</time></trkpt><trkpt lat="55.7971270" lon="49.1493672"><time>2025-03-22T11:37:24.797</time></trkpt><trkpt lat="55.7970736" lon="49.1493467"><time>2025-03-22T11:37:28.807</time></trkpt><trkpt lat="55.7970259" lon="49.1493356"><time>2025-03-22T11:37:32.807</time></trkpt><trkpt lat="55.7969788" lon="49.1493112"><time>2025-03-22T11:37:36.807</time></trkpt><trkpt lat="55.7969410" lon="49.1492565"><time>2025-03-22T11:37:41.810</time></trkpt><trkpt lat="55.7969149" lon="49.1491782"><time>2025-03-22T11:37:46.807</time></trkpt><trkpt lat="55.7968982" lon="49.1490929"><time>2025-03-22T11:37:51.807</time></trkpt><trkpt lat="55.7968855" lon="49.1490072"><time>2025-03-22T11:37:57.807</time></trkpt><trkpt lat="55.7968929" lon="49.1489209"><time>2025-03-22T11:38:02.807</time></trkpt><trkpt lat="55.7968993" lon="49.1488332"><time>2025-03-22T11:38:06.807</time></trkpt><trkpt lat="55.7969139" lon="49.1487509"><time>2025-03-22T11:38:11.807</time></trkpt><trkpt lat="55.7969332" lon="49.1486643"><time>2025-03-22T11:38:16.810</time></trkpt><trkpt lat="55.7969461" lon="49.1485729"><time>2025-03-22T11:38:20.807</time></trkpt><trkpt lat="55.7969599" lon="49.1484889"><time>2025-03-22T11:38:24.803</time></trkpt><trkpt lat="55.7969790" lon="49.1484019"><time>2025-03-22T11:38:30.803</time></trkpt><trkpt lat="55.7970198" lon="49.1483622"><time>2025-03-22T11:38:36.803</time></trkpt><trkpt lat="55.7970456" lon="49.1482865"><time>2025-03-22T11:38:40.800</time></trkpt><trkpt lat="55.7970803" lon="49.1482159"><time>2025-03-22T11:38:44.803</time></trkpt><trkpt lat="55.7971250" lon="49.1481529"><time>2025-03-22T11:38:48.803</time></trkpt><trkpt lat="55.7971628" lon="49.1480973"><time>2025-03-22T11:38:53.803</time></trkpt><trkpt lat="55.7972057" lon="49.1480491"><time>2025-03-22T11:38:59.807</time></trkpt><trkpt lat="55.7972258" lon="49.1479679"><time>2025-03-22T11:39:05.807</time></trkpt><trkpt lat="55.7972520" lon="49.1478961"><time>2025-03-22T11:39:09.803</time></trkpt><trkpt lat="55.7972781" lon="49.1477989"><time>2025-03-22T11:39:13.807</time></trkpt><trkpt lat="55.7972922" lon="49.1477133"><time>2025-03-22T11:39:17.797</time></trkpt><trkpt lat="55.7973053" lon="49.1476306"><time>2025-03-22T11:39:23.807</time></trkpt><trkpt lat="55.7973281" lon="49.1475542"><time>2025-03-22T11:39:28.807</time></trkpt><trkpt lat="55.7973290" lon="49.1474641"><time>2025-03-22T11:39:32.803</time></trkpt><trkpt lat="55.7973430" lon="49.1473698"><time>2025-03-22T11:39:37.803</time></trkpt><trkpt lat="55.7973470" lon="49.1472846"><time>2025-03-22T11:39:41.807</time></trkpt><trkpt lat="55.7973584" lon="49.1472043"><time>2025-03-22T11:39:45.803</time></trkpt><trkpt lat="55.7973676" lon="49.1471117"><time>2025-03-22T11:39:49.803</time></trkpt><trkpt lat="55.7973887" lon="49.1470333"><time>2025-03-22T11:39:54.807</time></trkpt><trkpt lat="55.7974109" lon="49.1469639"><time>2025-03-22T11:39:59.807</time></trkpt><trkpt lat="55.7974391" lon="49.1468926"><time>2025-03-22T11:40:07.803</time></trkpt><trkpt lat="55.7974770" lon="49.1468487"><time>2025-03-22T11:40:11.807</time></trkpt><trkpt lat="55.7975180" lon="49.1468146"><time>2025-03-22T11:40:15.803</time></trkpt><trkpt lat="55.7975408" lon="49.1467350"><time>2025-03-22T11:40:19.800</time></trkpt><trkpt lat="55.7975674" lon="49.1466655"><time>2025-03-22T11:40:23.803</time></trkpt><trkpt lat="55.7975990" lon="49.1465948"><time>2025-03-22T11:40:29.807</time></trkpt><trkpt lat="55.7976262" lon="49.1465182"><time>2025-03-22T11:40:35.807</time></trkpt><trkpt lat="55.7976690" lon="49.1464614"><time>2025-03-22T11:40:41.803</time></trkpt><trkpt lat="55.7977075" lon="49.1464160"><time>2025-03-22T11:40:47.807</time></trkpt><trkpt lat="55.7977630" lon="49.1464091"><time>2025-03-22T11:40:52.807</time></trkpt><trkpt lat="55.7978087" lon="49.1463837"><time>2025-03-22T11:40:57.807</time></trkpt><trkpt lat="55.7978593" lon="49.1463611"><time>2025-03-22T11:41:06.810</time></trkpt><trkpt lat="55.7979134" lon="49.1463422"><time>2025-03-22T11:41:11.807</time></trkpt><trkpt lat="55.7979571" lon="49.1463671"><time>2025-03-22T11:41:16.813</time></trkpt><trkpt lat="55.7979524" lon="49.1464471"><time>2025-03-22T11:41:29.810</time></trkpt><trkpt lat="55.7979690" lon="49.1465228"><time>2025-03-22T11:41:35.807</time></trkpt><trkpt lat="55.7980117" lon="49.1465544"><time>2025-03-22T11:41:40.807</time></trkpt><trkpt lat="55.7980505" lon="49.1466044"><time>2025-03-22T11:41:51.810</time></trkpt><trkpt lat="55.7980510" lon="49.1466876"><time>2025-03-22T11:42:07.793</time></trkpt><trkpt lat="55.7980548" lon="49.1466929"><time>2025-03-22T11:42:12.457</time></trkpt><trkpt lat="55.7980327" lon="49.1466148"><time>2025-03-22T11:42:27.790</time></trkpt><trkpt lat="55.7979832" lon="49.1465919"><time>2025-03-22T11:42:41.793</time></trkpt><trkpt lat="55.7979383" lon="49.1466011"><time>2025-03-22T11:42:53.820</time></trkpt><trkpt lat="55.7978912" lon="49.1465850"><time>2025-03-22T11:43:00.793</time></trkpt><trkpt lat="55.7979034" lon="49.1465076"><time>2025-03-22T11:43:13.803</time></trkpt><trkpt lat="55.7979345" lon="49.1464294"><time>2025-03-22T11:43:19.797</time></trkpt><trkpt lat="55.7979433" lon="49.1463426"><time>2025-03-22T11:43:26.803</time></trkpt><trkpt lat="55.7979844" lon="49.1462937"><time>2025-03-22T11:44:10.803</time></trkpt><trkpt lat="55.7980189" lon="49.1462174"><time>2025-03-22T11:44:15.803</time></trkpt><trkpt lat="55.7980552" lon="49.1461503"><time>2025-03-22T11:44:20.803</time></trkpt><trkpt lat="55.7980725" lon="49.1460757"><time>2025-03-22T11:44:27.807</time></trkpt><trkpt lat="55.7981193" lon="49.1460691"><time>2025-03-22T11:44:46.807</time></trkpt><trkpt lat="55.7981607" lon="49.1460303"><time>2025-03-22T11:44:53.797</time></trkpt><trkpt lat="55.7981443" lon="49.1459560"><time>2025-03-22T11:45:04.803</time></trkpt><trkpt lat="55.7981750" lon="49.1460190"><time>2025-03-22T11:45:51.807</time></trkpt><trkpt lat="55.7982136" lon="49.1460916"><time>2025-03-22T11:46:00.807</time></trkpt><trkpt lat="55.7982184" lon="49.1461723"><time>2025-03-22T11:46:05.793</time></trkpt><trkpt lat="55.7982371" lon="49.1462450"><time>2025-03-22T11:46:11.807</time></trkpt><trkpt lat="55.7982717" lon="49.1462984"><time>2025-03-22T11:46:18.793</time></trkpt></trkseg></trk></gpx>